sensor_id;sensor_type;location;lat;lon;timestamp;P1;durP1;ratioP1;P2;durP2;ratioP2
13406;SDS011;6774;48.208;10.766;2023-08-20T00:01:17;3.65;;;3.45;;
13406;SDS011;6774;48.208;10.766;2023-08-20T00:03:50;5.60;;;5.10;;
13406;SDS011;6774;48.208;10.766;2023-08-20T00:06:19;5.55;;;5.13;;
13406;SDS011;6774;48.208;10.766;2023-08-20T00:08:48;4.10;;;3.80;;
13406;SDS011;6774;48.208;10.766;2023-08-20T00:11:16;5.07;;;4.63;;
13406;SDS011;6774;48.208;10.766;2023-08-20T00:13:44;4.10;;;3.80;;
13406;SDS011;6774;48.208;10.766;2023-08-20T00:16:13;3.88;;;3.67;;
13406;SDS011;6774;48.208;10.766;2023-08-20T00:18:42;5.68;;;4.93;;
13406;SDS011;6774;48.208;10.766;2023-08-20T00:21:10;4.07;;;3.88;;
13406;SDS011;6774;48.208;10.766;2023-08-20T00:23:38;3.57;;;3.27;;
13406;SDS011;6774;48.208;10.766;2023-08-20T00:26:06;11.47;;;4.90;;
13406;SDS011;6774;48.208;10.766;2023-08-20T00:28:35;4.97;;;4.57;;
13406;SDS011;6774;48.208;10.766;2023-08-20T00:31:05;4.40;;;4.00;;
13406;SDS011;6774;48.208;10.766;2023-08-20T00:33:34;4.23;;;3.53;;
13406;SDS011;6774;48.208;10.766;2023-08-20T00:36:02;4.53;;;4.10;;
13406;SDS011;6774;48.208;10.766;2023-08-20T00:38:31;4.13;;;3.83;;
13406;SDS011;6774;48.208;10.766;2023-08-20T00:41:00;3.80;;;3.60;;
13406;SDS011;6774;48.208;10.766;2023-08-20T00:43:28;2.83;;;2.73;;
13406;SDS011;6774;48.208;10.766;2023-08-20T00:45:58;4.43;;;4.13;;
13406;SDS011;6774;48.208;10.766;2023-08-20T00:48:26;4.77;;;4.23;;
13406;SDS011;6774;48.208;10.766;2023-08-20T00:50:55;4.47;;;4.13;;
13406;SDS011;6774;48.208;10.766;2023-08-20T00:53:23;3.80;;;3.60;;
13406;SDS011;6774;48.208;10.766;2023-08-20T00:55:54;4.00;;;3.80;;
13406;SDS011;6774;48.208;10.766;2023-08-20T00:58:22;6.00;;;5.50;;
13406;SDS011;6774;48.208;10.766;2023-08-20T01:00:50;5.83;;;5.33;;
13406;SDS011;6774;48.208;10.766;2023-08-20T01:03:18;5.03;;;4.70;;
13406;SDS011;6774;48.208;10.766;2023-08-20T01:05:48;5.63;;;5.00;;
13406;SDS011;6774;48.208;10.766;2023-08-20T01:08:25;6.10;;;5.17;;
13406;SDS011;6774;48.208;10.766;2023-08-20T01:11:00;14.77;;;6.80;;
13406;SDS011;6774;48.208;10.766;2023-08-20T01:13:32;5.70;;;4.90;;
13406;SDS011;6774;48.208;10.766;2023-08-20T01:16:00;9.57;;;5.40;;
13406;SDS011;6774;48.208;10.766;2023-08-20T01:18:28;3.47;;;3.27;;
13406;SDS011;6774;48.208;10.766;2023-08-20T01:20:58;5.13;;;3.90;;
13406;SDS011;6774;48.208;10.766;2023-08-20T01:23:38;5.00;;;3.87;;
13406;SDS011;6774;48.208;10.766;2023-08-20T01:26:21;4.70;;;4.30;;
13406;SDS011;6774;48.208;10.766;2023-08-20T01:29:16;4.93;;;4.63;;
13406;SDS011;6774;48.208;10.766;2023-08-20T01:31:44;6.73;;;4.37;;
13406;SDS011;6774;48.208;10.766;2023-08-20T01:34:12;4.83;;;4.43;;
13406;SDS011;6774;48.208;10.766;2023-08-20T01:36:40;4.30;;;4.00;;
13406;SDS011;6774;48.208;10.766;2023-08-20T01:39:09;4.20;;;3.97;;
13406;SDS011;6774;48.208;10.766;2023-08-20T01:41:37;3.20;;;3.03;;
13406;SDS011;6774;48.208;10.766;2023-08-20T01:44:05;4.83;;;4.20;;
13406;SDS011;6774;48.208;10.766;2023-08-20T01:46:35;3.50;;;3.33;;
13406;SDS011;6774;48.208;10.766;2023-08-20T01:49:03;3.23;;;3.07;;
13406;SDS011;6774;48.208;10.766;2023-08-20T01:51:31;4.17;;;3.97;;
13406;SDS011;6774;48.208;10.766;2023-08-20T01:53:59;4.57;;;4.27;;
13406;SDS011;6774;48.208;10.766;2023-08-20T01:56:27;3.83;;;3.60;;
13406;SDS011;6774;48.208;10.766;2023-08-20T01:58:54;3.63;;;3.43;;
13406;SDS011;6774;48.208;10.766;2023-08-20T02:01:22;4.83;;;4.63;;
13406;SDS011;6774;48.208;10.766;2023-08-20T02:03:51;3.23;;;3.03;;
13406;SDS011;6774;48.208;10.766;2023-08-20T02:06:19;3.80;;;3.60;;
13406;SDS011;6774;48.208;10.766;2023-08-20T02:08:47;3.47;;;3.27;;
13406;SDS011;6774;48.208;10.766;2023-08-20T02:11:15;3.63;;;3.43;;
13406;SDS011;6774;48.208;10.766;2023-08-20T02:13:44;3.40;;;3.30;;
13406;SDS011;6774;48.208;10.766;2023-08-20T02:16:11;3.10;;;2.90;;
13406;SDS011;6774;48.208;10.766;2023-08-20T02:18:39;4.03;;;3.83;;
13406;SDS011;6774;48.208;10.766;2023-08-20T02:21:08;3.93;;;3.67;;
13406;SDS011;6774;48.208;10.766;2023-08-20T02:23:36;4.73;;;4.20;;
13406;SDS011;6774;48.208;10.766;2023-08-20T02:26:05;4.67;;;4.33;;
13406;SDS011;6774;48.208;10.766;2023-08-20T02:28:33;9.30;;;4.87;;
13406;SDS011;6774;48.208;10.766;2023-08-20T02:31:03;5.20;;;4.80;;
13406;SDS011;6774;48.208;10.766;2023-08-20T02:33:32;4.43;;;4.23;;
13406;SDS011;6774;48.208;10.766;2023-08-20T02:36:00;4.33;;;4.13;;
13406;SDS011;6774;48.208;10.766;2023-08-20T02:38:30;4.10;;;3.87;;
13406;SDS011;6774;48.208;10.766;2023-08-20T02:40:58;4.30;;;3.93;;
13406;SDS011;6774;48.208;10.766;2023-08-20T02:43:26;3.90;;;3.70;;
13406;SDS011;6774;48.208;10.766;2023-08-20T02:45:54;6.47;;;5.30;;
13406;SDS011;6774;48.208;10.766;2023-08-20T02:48:22;4.20;;;3.93;;
13406;SDS011;6774;48.208;10.766;2023-08-20T02:50:53;3.73;;;3.53;;
13406;SDS011;6774;48.208;10.766;2023-08-20T02:53:21;4.40;;;4.00;;
13406;SDS011;6774;48.208;10.766;2023-08-20T02:55:50;4.57;;;4.27;;
13406;SDS011;6774;48.208;10.766;2023-08-20T02:58:18;3.77;;;3.57;;
13406;SDS011;6774;48.208;10.766;2023-08-20T03:00:46;5.17;;;4.00;;
13406;SDS011;6774;48.208;10.766;2023-08-20T03:03:14;3.80;;;3.60;;
13406;SDS011;6774;48.208;10.766;2023-08-20T03:05:42;3.70;;;3.33;;
13406;SDS011;6774;48.208;10.766;2023-08-20T03:08:10;3.33;;;3.10;;
13406;SDS011;6774;48.208;10.766;2023-08-20T03:10:38;5.50;;;5.07;;
13406;SDS011;6774;48.208;10.766;2023-08-20T03:13:07;3.63;;;3.43;;
13406;SDS011;6774;48.208;10.766;2023-08-20T03:15:35;4.60;;;4.40;;
13406;SDS011;6774;48.208;10.766;2023-08-20T03:18:03;3.80;;;3.60;;
13406;SDS011;6774;48.208;10.766;2023-08-20T03:20:32;3.87;;;3.67;;
13406;SDS011;6774;48.208;10.766;2023-08-20T03:23:01;3.67;;;3.47;;
13406;SDS011;6774;48.208;10.766;2023-08-20T03:25:29;5.07;;;4.77;;
13406;SDS011;6774;48.208;10.766;2023-08-20T03:27:56;2.93;;;2.73;;
13406;SDS011;6774;48.208;10.766;2023-08-20T03:30:26;4.27;;;4.03;;
13406;SDS011;6774;48.208;10.766;2023-08-20T03:32:54;2.93;;;2.83;;
13406;SDS011;6774;48.208;10.766;2023-08-20T03:35:23;2.77;;;2.67;;
13406;SDS011;6774;48.208;10.766;2023-08-20T03:37:50;3.93;;;2.77;;
13406;SDS011;6774;48.208;10.766;2023-08-20T03:40:18;3.73;;;3.53;;
13406;SDS011;6774;48.208;10.766;2023-08-20T03:42:46;3.77;;;3.40;;
13406;SDS011;6774;48.208;10.766;2023-08-20T03:45:16;3.43;;;3.30;;
13406;SDS011;6774;48.208;10.766;2023-08-20T03:47:45;3.70;;;3.43;;
13406;SDS011;6774;48.208;10.766;2023-08-20T03:50:15;4.53;;;4.30;;
13406;SDS011;6774;48.208;10.766;2023-08-20T03:52:44;5.80;;;5.40;;
13406;SDS011;6774;48.208;10.766;2023-08-20T03:55:12;5.03;;;4.73;;
13406;SDS011;6774;48.208;10.766;2023-08-20T03:57:39;3.53;;;3.27;;
13406;SDS011;6774;48.208;10.766;2023-08-20T04:00:07;4.53;;;4.13;;
13406;SDS011;6774;48.208;10.766;2023-08-20T04:02:43;4.07;;;3.87;;
13406;SDS011;6774;48.208;10.766;2023-08-20T04:05:12;5.43;;;5.00;;
13406;SDS011;6774;48.208;10.766;2023-08-20T04:07:40;3.50;;;3.30;;
13406;SDS011;6774;48.208;10.766;2023-08-20T04:10:08;3.43;;;3.23;;
13406;SDS011;6774;48.208;10.766;2023-08-20T04:12:36;3.63;;;3.43;;
13406;SDS011;6774;48.208;10.766;2023-08-20T04:15:04;4.57;;;4.27;;
13406;SDS011;6774;48.208;10.766;2023-08-20T04:17:32;3.83;;;3.63;;
13406;SDS011;6774;48.208;10.766;2023-08-20T04:20:00;4.30;;;4.00;;
13406;SDS011;6774;48.208;10.766;2023-08-20T04:22:35;4.27;;;4.07;;
13406;SDS011;6774;48.208;10.766;2023-08-20T04:25:03;3.60;;;3.40;;
13406;SDS011;6774;48.208;10.766;2023-08-20T04:27:32;5.13;;;4.77;;
13406;SDS011;6774;48.208;10.766;2023-08-20T04:30:01;4.40;;;4.20;;
13406;SDS011;6774;48.208;10.766;2023-08-20T04:32:29;5.97;;;5.67;;
13406;SDS011;6774;48.208;10.766;2023-08-20T04:34:57;4.33;;;3.93;;
13406;SDS011;6774;48.208;10.766;2023-08-20T04:37:26;4.53;;;4.33;;
13406;SDS011;6774;48.208;10.766;2023-08-20T04:39:57;3.03;;;2.93;;
13406;SDS011;6774;48.208;10.766;2023-08-20T04:42:27;3.80;;;3.50;;
13406;SDS011;6774;48.208;10.766;2023-08-20T04:44:56;4.43;;;4.23;;
13406;SDS011;6774;48.208;10.766;2023-08-20T04:47:25;5.00;;;4.17;;
13406;SDS011;6774;48.208;10.766;2023-08-20T04:49:53;5.20;;;5.00;;
13406;SDS011;6774;48.208;10.766;2023-08-20T04:52:21;4.93;;;4.63;;
13406;SDS011;6774;48.208;10.766;2023-08-20T04:54:49;5.67;;;5.20;;
13406;SDS011;6774;48.208;10.766;2023-08-20T04:57:21;6.27;;;4.67;;
13406;SDS011;6774;48.208;10.766;2023-08-20T04:59:50;4.37;;;4.17;;
13406;SDS011;6774;48.208;10.766;2023-08-20T05:02:23;5.47;;;5.13;;
13406;SDS011;6774;48.208;10.766;2023-08-20T05:04:58;7.57;;;5.47;;
13406;SDS011;6774;48.208;10.766;2023-08-20T05:07:26;6.23;;;4.77;;
13406;SDS011;6774;48.208;10.766;2023-08-20T05:09:54;4.67;;;4.47;;
13406;SDS011;6774;48.208;10.766;2023-08-20T05:12:24;6.63;;;5.77;;
13406;SDS011;6774;48.208;10.766;2023-08-20T05:14:52;4.13;;;3.87;;
13406;SDS011;6774;48.208;10.766;2023-08-20T05:17:20;5.03;;;4.57;;
13406;SDS011;6774;48.208;10.766;2023-08-20T05:19:48;6.30;;;5.80;;
13406;SDS011;6774;48.208;10.766;2023-08-20T05:22:16;6.30;;;5.90;;
13406;SDS011;6774;48.208;10.766;2023-08-20T05:24:44;7.80;;;6.57;;
13406;SDS011;6774;48.208;10.766;2023-08-20T05:27:15;7.57;;;7.07;;
13406;SDS011;6774;48.208;10.766;2023-08-20T05:29:47;6.63;;;6.07;;
13406;SDS011;6774;48.208;10.766;2023-08-20T05:32:16;3.97;;;3.77;;
13406;SDS011;6774;48.208;10.766;2023-08-20T05:34:45;4.90;;;4.47;;
13406;SDS011;6774;48.208;10.766;2023-08-20T05:37:13;6.40;;;5.87;;
13406;SDS011;6774;48.208;10.766;2023-08-20T05:39:42;6.17;;;5.87;;
13406;SDS011;6774;48.208;10.766;2023-08-20T05:42:12;7.20;;;5.93;;
13406;SDS011;6774;48.208;10.766;2023-08-20T05:44:45;6.53;;;6.03;;
13406;SDS011;6774;48.208;10.766;2023-08-20T05:47:19;5.50;;;5.20;;
13406;SDS011;6774;48.208;10.766;2023-08-20T05:49:47;5.37;;;5.00;;
13406;SDS011;6774;48.208;10.766;2023-08-20T05:52:16;5.73;;;5.43;;
13406;SDS011;6774;48.208;10.766;2023-08-20T05:54:44;6.37;;;5.87;;
13406;SDS011;6774;48.208;10.766;2023-08-20T05:57:11;7.33;;;6.80;;
13406;SDS011;6774;48.208;10.766;2023-08-20T05:59:40;6.13;;;5.43;;
13406;SDS011;6774;48.208;10.766;2023-08-20T06:02:08;6.60;;;5.97;;
13406;SDS011;6774;48.208;10.766;2023-08-20T06:04:38;6.27;;;5.77;;
13406;SDS011;6774;48.208;10.766;2023-08-20T06:07:05;5.67;;;5.33;;
13406;SDS011;6774;48.208;10.766;2023-08-20T06:09:33;5.43;;;4.83;;
13406;SDS011;6774;48.208;10.766;2023-08-20T06:12:01;7.90;;;7.40;;
13406;SDS011;6774;48.208;10.766;2023-08-20T06:14:29;5.40;;;5.10;;
13406;SDS011;6774;48.208;10.766;2023-08-20T06:16:56;6.50;;;5.90;;
13406;SDS011;6774;48.208;10.766;2023-08-20T06:19:24;12.93;;;6.90;;
13406;SDS011;6774;48.208;10.766;2023-08-20T06:21:54;9.27;;;6.43;;
13406;SDS011;6774;48.208;10.766;2023-08-20T06:24:22;6.40;;;5.80;;
13406;SDS011;6774;48.208;10.766;2023-08-20T06:26:50;5.80;;;5.50;;
13406;SDS011;6774;48.208;10.766;2023-08-20T06:29:18;5.47;;;5.17;;
13406;SDS011;6774;48.208;10.766;2023-08-20T06:31:48;6.77;;;6.17;;
13406;SDS011;6774;48.208;10.766;2023-08-20T06:34:16;5.67;;;5.27;;
13406;SDS011;6774;48.208;10.766;2023-08-20T06:36:44;7.13;;;5.10;;
13406;SDS011;6774;48.208;10.766;2023-08-20T06:39:13;6.03;;;5.57;;
13406;SDS011;6774;48.208;10.766;2023-08-20T06:41:41;6.67;;;6.17;;
13406;SDS011;6774;48.208;10.766;2023-08-20T06:44:18;12.13;;;7.30;;
13406;SDS011;6774;48.208;10.766;2023-08-20T06:46:46;7.23;;;6.73;;
13406;SDS011;6774;48.208;10.766;2023-08-20T06:49:14;6.57;;;6.00;;
13406;SDS011;6774;48.208;10.766;2023-08-20T06:51:42;6.67;;;6.00;;
13406;SDS011;6774;48.208;10.766;2023-08-20T06:54:09;6.50;;;5.97;;
13406;SDS011;6774;48.208;10.766;2023-08-20T06:56:38;8.20;;;7.40;;
13406;SDS011;6774;48.208;10.766;2023-08-20T06:59:06;5.90;;;5.50;;
13406;SDS011;6774;48.208;10.766;2023-08-20T07:01:34;6.20;;;5.70;;
13406;SDS011;6774;48.208;10.766;2023-08-20T07:04:02;6.10;;;5.80;;
13406;SDS011;6774;48.208;10.766;2023-08-20T07:06:30;6.80;;;6.40;;
13406;SDS011;6774;48.208;10.766;2023-08-20T07:08:58;6.77;;;6.37;;
13406;SDS011;6774;48.208;10.766;2023-08-20T07:11:26;7.45;;;5.72;;
13406;SDS011;6774;48.208;10.766;2023-08-20T07:13:55;5.97;;;5.55;;
13406;SDS011;6774;48.208;10.766;2023-08-20T07:16:23;7.20;;;6.55;;
13406;SDS011;6774;48.208;10.766;2023-08-20T07:18:50;10.68;;;9.25;;
13406;SDS011;6774;48.208;10.766;2023-08-20T07:21:19;5.47;;;5.18;;
13406;SDS011;6774;48.208;10.766;2023-08-20T07:23:47;5.80;;;5.40;;
13406;SDS011;6774;48.208;10.766;2023-08-20T07:26:15;7.90;;;6.60;;
13406;SDS011;6774;48.208;10.766;2023-08-20T07:28:42;6.00;;;5.57;;
13406;SDS011;6774;48.208;10.766;2023-08-20T07:31:28;6.65;;;6.18;;
13406;SDS011;6774;48.208;10.766;2023-08-20T07:33:57;7.28;;;6.90;;
13406;SDS011;6774;48.208;10.766;2023-08-20T07:36:30;8.15;;;7.40;;
13406;SDS011;6774;48.208;10.766;2023-08-20T07:38:58;6.15;;;5.82;;
13406;SDS011;6774;48.208;10.766;2023-08-20T07:41:28;6.15;;;5.60;;
13406;SDS011;6774;48.208;10.766;2023-08-20T07:43:56;5.85;;;5.50;;
13406;SDS011;6774;48.208;10.766;2023-08-20T07:46:24;9.85;;;6.63;;
13406;SDS011;6774;48.208;10.766;2023-08-20T07:48:53;6.03;;;5.47;;
13406;SDS011;6774;48.208;10.766;2023-08-20T07:51:21;5.32;;;4.88;;
13406;SDS011;6774;48.208;10.766;2023-08-20T07:53:49;7.95;;;6.78;;
13406;SDS011;6774;48.208;10.766;2023-08-20T07:56:16;7.38;;;6.97;;
13406;SDS011;6774;48.208;10.766;2023-08-20T07:58:44;7.03;;;6.57;;
13406;SDS011;6774;48.208;10.766;2023-08-20T08:01:12;5.97;;;5.47;;
13406;SDS011;6774;48.208;10.766;2023-08-20T08:03:40;6.97;;;6.35;;
13406;SDS011;6774;48.208;10.766;2023-08-20T08:06:09;5.15;;;4.85;;
13406;SDS011;6774;48.208;10.766;2023-08-20T08:08:37;4.78;;;4.50;;
13406;SDS011;6774;48.208;10.766;2023-08-20T08:11:09;10.05;;;6.55;;
13406;SDS011;6774;48.208;10.766;2023-08-20T08:13:37;5.53;;;5.03;;
13406;SDS011;6774;48.208;10.766;2023-08-20T08:16:05;7.30;;;6.50;;
13406;SDS011;6774;48.208;10.766;2023-08-20T08:18:33;4.88;;;4.63;;
13406;SDS011;6774;48.208;10.766;2023-08-20T08:21:00;6.28;;;5.90;;
13406;SDS011;6774;48.208;10.766;2023-08-20T08:23:29;6.20;;;5.70;;
13406;SDS011;6774;48.208;10.766;2023-08-20T08:25:57;5.47;;;5.07;;
13406;SDS011;6774;48.208;10.766;2023-08-20T08:28:25;6.25;;;5.68;;
13406;SDS011;6774;48.208;10.766;2023-08-20T08:30:53;4.63;;;4.30;;
13406;SDS011;6774;48.208;10.766;2023-08-20T08:33:20;3.88;;;3.78;;
13406;SDS011;6774;48.208;10.766;2023-08-20T08:35:50;5.82;;;4.88;;
13406;SDS011;6774;48.208;10.766;2023-08-20T08:38:17;8.82;;;5.53;;
13406;SDS011;6774;48.208;10.766;2023-08-20T08:40:46;6.32;;;5.75;;
13406;SDS011;6774;48.208;10.766;2023-08-20T08:43:15;5.72;;;5.43;;
13406;SDS011;6774;48.208;10.766;2023-08-20T08:45:44;9.70;;;9.10;;
13406;SDS011;6774;48.208;10.766;2023-08-20T08:48:14;7.32;;;7.03;;
13406;SDS011;6774;48.208;10.766;2023-08-20T08:50:43;6.05;;;5.82;;
13406;SDS011;6774;48.208;10.766;2023-08-20T08:53:11;6.75;;;5.63;;
13406;SDS011;6774;48.208;10.766;2023-08-20T08:55:40;3.92;;;3.72;;
13406;SDS011;6774;48.208;10.766;2023-08-20T08:58:11;5.50;;;5.20;;
13406;SDS011;6774;48.208;10.766;2023-08-20T09:00:39;5.63;;;5.00;;
13406;SDS011;6774;48.208;10.766;2023-08-20T09:03:07;9.57;;;5.43;;
13406;SDS011;6774;48.208;10.766;2023-08-20T09:05:45;10.88;;;5.75;;
13406;SDS011;6774;48.208;10.766;2023-08-20T09:08:21;4.65;;;4.25;;
13406;SDS011;6774;48.208;10.766;2023-08-20T09:10:49;3.28;;;3.17;;
13406;SDS011;6774;48.208;10.766;2023-08-20T09:13:23;4.50;;;4.22;;
13406;SDS011;6774;48.208;10.766;2023-08-20T09:15:51;4.22;;;3.92;;
13406;SDS011;6774;48.208;10.766;2023-08-20T09:18:19;7.75;;;5.50;;
13406;SDS011;6774;48.208;10.766;2023-08-20T09:20:48;4.03;;;3.72;;
13406;SDS011;6774;48.208;10.766;2023-08-20T09:23:16;4.45;;;4.03;;
13406;SDS011;6774;48.208;10.766;2023-08-20T09:25:44;7.03;;;5.47;;
13406;SDS011;6774;48.208;10.766;2023-08-20T09:28:12;4.82;;;4.53;;
13406;SDS011;6774;48.208;10.766;2023-08-20T09:30:44;8.55;;;5.05;;
13406;SDS011;6774;48.208;10.766;2023-08-20T09:33:22;4.28;;;3.92;;
13406;SDS011;6774;48.208;10.766;2023-08-20T09:35:50;4.50;;;4.22;;
13406;SDS011;6774;48.208;10.766;2023-08-20T09:38:18;4.10;;;3.90;;
13406;SDS011;6774;48.208;10.766;2023-08-20T09:40:47;4.15;;;3.08;;
13406;SDS011;6774;48.208;10.766;2023-08-20T09:43:17;4.00;;;3.75;;
13406;SDS011;6774;48.208;10.766;2023-08-20T09:45:47;3.45;;;3.15;;
13406;SDS011;6774;48.208;10.766;2023-08-20T09:48:18;5.43;;;4.97;;
13406;SDS011;6774;48.208;10.766;2023-08-20T09:50:47;8.02;;;4.13;;
13406;SDS011;6774;48.208;10.766;2023-08-20T09:53:21;3.47;;;3.35;;
13406;SDS011;6774;48.208;10.766;2023-08-20T09:55:54;3.72;;;3.53;;
13406;SDS011;6774;48.208;10.766;2023-08-20T09:58:26;4.00;;;3.05;;
13406;SDS011;6774;48.208;10.766;2023-08-20T10:00:56;5.30;;;5.00;;
13406;SDS011;6774;48.208;10.766;2023-08-20T10:03:24;4.10;;;3.72;;
13406;SDS011;6774;48.208;10.766;2023-08-20T10:05:52;4.32;;;3.97;;
13406;SDS011;6774;48.208;10.766;2023-08-20T10:08:21;3.60;;;3.20;;
13406;SDS011;6774;48.208;10.766;2023-08-20T10:10:49;4.25;;;3.95;;
13406;SDS011;6774;48.208;10.766;2023-08-20T10:13:16;3.13;;;2.75;;
13406;SDS011;6774;48.208;10.766;2023-08-20T10:15:45;6.10;;;3.13;;
13406;SDS011;6774;48.208;10.766;2023-08-20T10:18:14;7.75;;;3.55;;
13406;SDS011;6774;48.208;10.766;2023-08-20T10:20:42;6.45;;;4.32;;
13406;SDS011;6774;48.208;10.766;2023-08-20T10:23:10;2.83;;;2.63;;
13406;SDS011;6774;48.208;10.766;2023-08-20T10:25:40;3.00;;;2.83;;
13406;SDS011;6774;48.208;10.766;2023-08-20T10:28:11;5.97;;;3.28;;
13406;SDS011;6774;48.208;10.766;2023-08-20T10:33:38;4.10;;;3.72;;
13406;SDS011;6774;48.208;10.766;2023-08-20T10:36:07;3.67;;;3.38;;
13406;SDS011;6774;48.208;10.766;2023-08-20T10:38:37;3.85;;;3.65;;
13406;SDS011;6774;48.208;10.766;2023-08-20T10:41:06;3.92;;;3.60;;
13406;SDS011;6774;48.208;10.766;2023-08-20T10:43:34;2.60;;;2.40;;
13406;SDS011;6774;48.208;10.766;2023-08-20T10:46:07;3.60;;;3.40;;
13406;SDS011;6774;48.208;10.766;2023-08-20T10:48:42;3.13;;;2.92;;
13406;SDS011;6774;48.208;10.766;2023-08-20T10:51:12;3.10;;;2.95;;
13406;SDS011;6774;48.208;10.766;2023-08-20T10:53:41;3.13;;;2.70;;
13406;SDS011;6774;48.208;10.766;2023-08-20T10:56:10;2.63;;;2.38;;
13406;SDS011;6774;48.208;10.766;2023-08-20T10:58:43;3.45;;;3.15;;
13406;SDS011;6774;48.208;10.766;2023-08-20T11:01:17;3.47;;;3.17;;
13406;SDS011;6774;48.208;10.766;2023-08-20T11:03:49;2.50;;;2.40;;
13406;SDS011;6774;48.208;10.766;2023-08-20T11:06:18;3.17;;;2.97;;
13406;SDS011;6774;48.208;10.766;2023-08-20T11:08:46;3.35;;;3.05;;
13406;SDS011;6774;48.208;10.766;2023-08-20T11:11:14;3.58;;;3.35;;
13406;SDS011;6774;48.208;10.766;2023-08-20T11:13:42;3.58;;;3.33;;
13406;SDS011;6774;48.208;10.766;2023-08-20T11:16:10;3.22;;;3.03;;
13406;SDS011;6774;48.208;10.766;2023-08-20T11:18:38;3.22;;;3.03;;
13406;SDS011;6774;48.208;10.766;2023-08-20T11:21:08;2.42;;;2.33;;
13406;SDS011;6774;48.208;10.766;2023-08-20T11:23:35;2.78;;;2.58;;
13406;SDS011;6774;48.208;10.766;2023-08-20T11:26:07;5.63;;;4.10;;
13406;SDS011;6774;48.208;10.766;2023-08-20T11:28:35;2.75;;;2.55;;
13406;SDS011;6774;48.208;10.766;2023-08-20T11:31:03;2.92;;;2.67;;
13406;SDS011;6774;48.208;10.766;2023-08-20T11:33:31;3.88;;;3.58;;
13406;SDS011;6774;48.208;10.766;2023-08-20T11:35:58;2.25;;;2.15;;
13406;SDS011;6774;48.208;10.766;2023-08-20T11:38:28;4.80;;;2.80;;
13406;SDS011;6774;48.208;10.766;2023-08-20T11:40:57;2.10;;;2.00;;
13406;SDS011;6774;48.208;10.766;2023-08-20T11:43:26;4.55;;;2.70;;
13406;SDS011;6774;48.208;10.766;2023-08-20T11:45:54;2.92;;;2.72;;
13406;SDS011;6774;48.208;10.766;2023-08-20T11:48:23;5.55;;;2.50;;
13406;SDS011;6774;48.208;10.766;2023-08-20T11:50:50;6.97;;;2.80;;
13406;SDS011;6774;48.208;10.766;2023-08-20T11:53:20;2.38;;;2.17;;
13406;SDS011;6774;48.208;10.766;2023-08-20T11:55:50;2.85;;;2.75;;
13406;SDS011;6774;48.208;10.766;2023-08-20T11:58:18;2.30;;;1.98;;
13406;SDS011;6774;48.208;10.766;2023-08-20T12:00:48;2.13;;;2.03;;
13406;SDS011;6774;48.208;10.766;2023-08-20T12:03:18;2.92;;;2.72;;
13406;SDS011;6774;48.208;10.766;2023-08-20T12:05:47;4.63;;;3.35;;
13406;SDS011;6774;48.208;10.766;2023-08-20T12:08:15;2.85;;;2.65;;
13406;SDS011;6774;48.208;10.766;2023-08-20T12:10:44;2.50;;;2.40;;
13406;SDS011;6774;48.208;10.766;2023-08-20T12:13:13;5.70;;;2.22;;
13406;SDS011;6774;48.208;10.766;2023-08-20T12:15:41;4.30;;;2.58;;
13406;SDS011;6774;48.208;10.766;2023-08-20T12:18:09;2.08;;;1.98;;
13406;SDS011;6774;48.208;10.766;2023-08-20T12:20:36;3.38;;;2.67;;
13406;SDS011;6774;48.208;10.766;2023-08-20T12:23:05;3.20;;;2.95;;
13406;SDS011;6774;48.208;10.766;2023-08-20T12:25:34;2.83;;;2.58;;
13406;SDS011;6774;48.208;10.766;2023-08-20T12:28:03;3.20;;;2.92;;
13406;SDS011;6774;48.208;10.766;2023-08-20T12:30:33;3.20;;;2.50;;
13406;SDS011;6774;48.208;10.766;2023-08-20T12:33:04;3.45;;;2.45;;
13406;SDS011;6774;48.208;10.766;2023-08-20T12:35:33;2.15;;;2.05;;
13406;SDS011;6774;48.208;10.766;2023-08-20T12:38:01;3.60;;;2.20;;
13406;SDS011;6774;48.208;10.766;2023-08-20T12:40:29;2.78;;;2.58;;
13406;SDS011;6774;48.208;10.766;2023-08-20T12:42:58;1.77;;;1.67;;
13406;SDS011;6774;48.208;10.766;2023-08-20T12:45:26;4.50;;;2.88;;
13406;SDS011;6774;48.208;10.766;2023-08-20T12:47:55;1.70;;;1.30;;
13406;SDS011;6774;48.208;10.766;2023-08-20T12:50:27;1.90;;;1.80;;
13406;SDS011;6774;48.208;10.766;2023-08-20T12:52:55;2.95;;;2.70;;
13406;SDS011;6774;48.208;10.766;2023-08-20T12:55:23;2.83;;;2.72;;
13406;SDS011;6774;48.208;10.766;2023-08-20T12:57:52;1.98;;;1.88;;
13406;SDS011;6774;48.208;10.766;2023-08-20T13:00:21;3.38;;;2.20;;
13406;SDS011;6774;48.208;10.766;2023-08-20T13:02:51;4.90;;;2.88;;
13406;SDS011;6774;48.208;10.766;2023-08-20T13:05:21;5.80;;;2.00;;
13406;SDS011;6774;48.208;10.766;2023-08-20T13:07:50;2.10;;;2.00;;
13406;SDS011;6774;48.208;10.766;2023-08-20T13:10:18;2.60;;;2.35;;
13406;SDS011;6774;48.208;10.766;2023-08-20T13:12:48;5.03;;;3.53;;
13406;SDS011;6774;48.208;10.766;2023-08-20T13:15:17;4.10;;;1.95;;
13406;SDS011;6774;48.208;10.766;2023-08-20T13:17:47;1.85;;;1.75;;
13406;SDS011;6774;48.208;10.766;2023-08-20T13:20:16;2.97;;;2.83;;
13406;SDS011;6774;48.208;10.766;2023-08-20T13:22:48;3.20;;;2.17;;
13406;SDS011;6774;48.208;10.766;2023-08-20T13:25:16;2.28;;;2.10;;
13406;SDS011;6774;48.208;10.766;2023-08-20T13:27:44;2.63;;;2.53;;
13406;SDS011;6774;48.208;10.766;2023-08-20T13:30:12;2.08;;;1.98;;
13406;SDS011;6774;48.208;10.766;2023-08-20T13:32:41;1.95;;;1.85;;
13406;SDS011;6774;48.208;10.766;2023-08-20T13:35:08;2.83;;;2.63;;
13406;SDS011;6774;48.208;10.766;2023-08-20T13:37:36;2.28;;;2.17;;
13406;SDS011;6774;48.208;10.766;2023-08-20T13:40:06;2.78;;;2.58;;
13406;SDS011;6774;48.208;10.766;2023-08-20T13:42:36;10.00;;;3.45;;
13406;SDS011;6774;48.208;10.766;2023-08-20T13:45:04;2.05;;;1.95;;
13406;SDS011;6774;48.208;10.766;2023-08-20T13:47:33;2.17;;;2.08;;
13406;SDS011;6774;48.208;10.766;2023-08-20T13:50:01;2.35;;;2.25;;
13406;SDS011;6774;48.208;10.766;2023-08-20T13:52:31;2.83;;;2.63;;
13406;SDS011;6774;48.208;10.766;2023-08-20T13:54:59;3.20;;;3.00;;
13406;SDS011;6774;48.208;10.766;2023-08-20T13:57:28;2.75;;;2.65;;
13406;SDS011;6774;48.208;10.766;2023-08-20T13:59:57;2.67;;;2.00;;
13406;SDS011;6774;48.208;10.766;2023-08-20T14:02:25;3.83;;;2.60;;
13406;SDS011;6774;48.208;10.766;2023-08-20T14:04:53;4.63;;;3.90;;
13406;SDS011;6774;48.208;10.766;2023-08-20T14:07:21;2.42;;;2.33;;
13406;SDS011;6774;48.208;10.766;2023-08-20T14:09:49;4.97;;;2.20;;
13406;SDS011;6774;48.208;10.766;2023-08-20T14:12:17;3.00;;;2.78;;
13406;SDS011;6774;48.208;10.766;2023-08-20T14:14:47;2.58;;;2.38;;
13406;SDS011;6774;48.208;10.766;2023-08-20T14:17:15;3.03;;;2.60;;
13406;SDS011;6774;48.208;10.766;2023-08-20T14:19:43;4.13;;;3.88;;
13406;SDS011;6774;48.208;10.766;2023-08-20T14:22:11;2.78;;;2.22;;
13406;SDS011;6774;48.208;10.766;2023-08-20T14:24:39;2.45;;;2.25;;
13406;SDS011;6774;48.208;10.766;2023-08-20T14:27:06;2.58;;;2.45;;
13406;SDS011;6774;48.208;10.766;2023-08-20T14:29:34;2.60;;;2.35;;
13406;SDS011;6774;48.208;10.766;2023-08-20T14:32:04;2.38;;;2.22;;
13406;SDS011;6774;48.208;10.766;2023-08-20T14:34:32;3.53;;;3.17;;
13406;SDS011;6774;48.208;10.766;2023-08-20T14:37:00;2.30;;;1.83;;
13406;SDS011;6774;48.208;10.766;2023-08-20T14:39:27;1.88;;;1.73;;
13406;SDS011;6774;48.208;10.766;2023-08-20T14:41:58;2.78;;;2.58;;
13406;SDS011;6774;48.208;10.766;2023-08-20T14:44:26;3.83;;;2.30;;
13406;SDS011;6774;48.208;10.766;2023-08-20T14:46:54;2.38;;;2.28;;
13406;SDS011;6774;48.208;10.766;2023-08-20T14:49:24;6.53;;;2.42;;
13406;SDS011;6774;48.208;10.766;2023-08-20T14:51:52;4.80;;;3.08;;
13406;SDS011;6774;48.208;10.766;2023-08-20T14:54:35;2.85;;;2.65;;
13406;SDS011;6774;48.208;10.766;2023-08-20T14:57:03;3.90;;;3.58;;
13406;SDS011;6774;48.208;10.766;2023-08-20T14:59:30;3.08;;;2.83;;
13406;SDS011;6774;48.208;10.766;2023-08-20T15:01:58;2.35;;;2.25;;